Time;durP1;ratioP1;P1;durP2;ratioP2;P2;SDS_P1;SDS_P2;PMS_P1;PMS_P2;Temp;Humidity;BMP_temperature;BMP_pressure;BME280_temperature;BME280_humidity;BME280_pressure;Samples;Min_cycle;Max_cycle;Signal;HPM_P1;HPM_P2
2022/01/17 00:00:17;;;;;;;;;;;;;;;5.03;100.00;100636.59;5073366;28;19929;-72
2022/01/17 00:02:45;;;;;;;;;;;;;;;5.00;100.00;100637.28;5074952;28;19929;-73
2022/01/17 00:05:13;;;;;;;;;;;;;;;5.05;100.00;100653.69;5074704;28;19932;-72
2022/01/17 00:07:40;;;;;;;;;;;;;;;5.00;100.00;100682.44;5073642;28;19978;-72
2022/01/17 00:10:07;;;;;;;;;;;;;;;4.95;100.00;100677.13;5061022;28;20402;-72
2022/01/17 00:12:38;;;;;;;;;;;;;;;4.82;100.00;100664.44;5038700;28;19925;-72
2022/01/17 00:15:15;;;;;;;;;;;;;;;4.90;100.00;100671.84;5033695;28;19925;-72
2022/01/17 00:17:45;;;;;;;;;;;;;;;4.85;100.00;100669.28;5048032;28;20026;-72
2022/01/17 00:20:17;;;;;;;;;;;;;;;4.95;100.00;100681.88;5034443;28;19925;-73
2022/01/17 00:22:47;;;;;;;;;;;;;;;5.01;100.00;100692.34;5034778;28;19932;-72
2022/01/17 00:25:14;;;;;;;;;;;;;;;5.04;100.00;100694.44;5042080;28;19964;-72
2022/01/17 00:27:41;;;;;;;;;;;;;;;5.01;100.00;100691.56;5054367;28;19928;-72
2022/01/17 00:30:09;;;;;;;;;;;;;;;5.08;100.00;100689.00;5052661;28;20011;-72
2022/01/17 00:32:36;;;;;;;;;;;;;;;5.13;100.00;100699.88;5036186;28;19972;-73
2022/01/17 00:35:03;;;;;;;;;;;;;;;5.14;100.00;100691.19;5053863;28;19960;-73
2022/01/17 00:37:30;;;;;;;;;;;;;;;4.96;100.00;100700.91;5052565;28;19924;-73
2022/01/17 00:39:57;;;;;;;;;;;;;;;4.97;100.00;100691.44;5052504;28;19929;-72
2022/01/17 00:42:25;;;;;;;;;;;;;;;5.11;100.00;100680.81;5053045;28;20011;-73
2022/01/17 00:44:52;;;;;;;;;;;;;;;5.04;100.00;100694.44;5053043;28;19929;-73
2022/01/17 00:47:19;;;;;;;;;;;;;;;5.10;100.00;100703.34;5054250;28;20024;-73
2022/01/17 00:49:46;;;;;;;;;;;;;;;5.22;100.00;100711.63;5053878;28;19925;-73
2022/01/17 00:52:13;;;;;;;;;;;;;;;5.30;100.00;100719.81;5053939;28;20027;-73
2022/01/17 00:54:40;;;;;;;;;;;;;;;5.36;100.00;100723.94;5054191;28;19925;-73
2022/01/17 00:57:08;;;;;;;;;;;;;;;5.15;100.00;100723.28;5069915;28;20379;-73
2022/01/17 00:59:35;;;;;;;;;;;;;;;5.20;100.00;100725.84;5054093;28;19931;-72
2022/01/17 01:02:02;;;;;;;;;;;;;;;5.23;100.00;100744.53;5052871;28;19931;-73
2022/01/17 01:04:29;;;;;;;;;;;;;;;5.24;100.00;100723.97;5052713;28;19925;-73
2022/01/17 01:06:57;;;;;;;;;;;;;;;5.30;100.00;100730.09;5054022;28;19983;-73
2022/01/17 01:09:27;;;;;;;;;;;;;;;5.19;100.00;100727.00;5086298;28;19976;-72
2022/01/17 01:11:54;;;;;;;;;;;;;;;5.25;100.00;100736.69;5068702;28;19963;-73
2022/01/17 01:14:21;;;;;;;;;;;;;;;5.22;100.00;100740.16;5053945;28;19931;-73
2022/01/17 01:16:51;;;;;;;;;;;;;;;5.14;100.00;100746.63;5052795;28;19925;-72
2022/01/17 01:30:11;;;;;;;;;;;;;;;5.44;100.00;100770.16;4995414;28;19969;-72
2022/01/17 01:32:45;;;;;;;;;;;;;;;5.52;100.00;100765.63;4979025;28;19933;-72
2022/01/17 01:35:15;;;;;;;;;;;;;;;5.57;100.00;100791.16;5011899;28;19976;-72
2022/01/17 01:37:44;;;;;;;;;;;;;;;5.18;100.00;100755.84;4995476;28;19926;-73
2022/01/17 01:40:12;;;;;;;;;;;;;;;5.29;100.00;100778.34;5011796;28;19968;-72
2022/01/17 01:42:41;;;;;;;;;;;;;;;5.24;100.00;100776.63;5011705;28;20024;-72
2022/01/17 01:45:09;;;;;;;;;;;;;;;5.33;100.00;100785.63;5011769;28;20072;-72
2022/01/17 01:47:36;;;;;;;;;;;;;;;5.33;100.00;100774.53;5011311;28;20373;-72
2022/01/17 01:50:04;;;;;;;;;;;;;;;5.48;100.00;100770.28;5011711;28;19926;-73
2022/01/17 01:52:31;;;;;;;;;;;;;;;5.48;100.00;100767.50;5011398;28;19925;-73
2022/01/17 01:54:58;;;;;;;;;;;;;;;5.56;100.00;100767.38;4995316;28;20004;-72
2022/01/17 01:57:25;;;;;;;;;;;;;;;5.59;100.00;100774.97;4995271;28;19925;-72
2022/01/17 01:59:54;;;;;;;;;;;;;;;5.81;100.00;100782.00;4995306;28;20415;-73
2022/01/17 02:02:21;;;;;;;;;;;;;;;5.88;100.00;100787.78;5057404;28;20015;-73
2022/01/17 02:04:49;;;;;;;;;;;;;;;6.07;100.00;100792.69;5073486;28;20342;-72
2022/01/17 02:07:16;;;;;;;;;;;;;;;5.85;100.00;100793.19;5055726;28;19925;-72
2022/01/17 02:09:43;;;;;;;;;;;;;;;5.88;100.00;100809.19;5072181;28;19931;-72
2022/01/17 02:12:10;;;;;;;;;;;;;;;5.74;100.00;100811.47;5073322;28;20025;-72
2022/01/17 02:14:38;;;;;;;;;;;;;;;5.62;100.00;100797.63;5073290;28;20276;-72
2022/01/17 02:17:05;;;;;;;;;;;;;;;5.58;100.00;100792.78;5072213;28;19924;-72
2022/01/17 02:19:34;;;;;;;;;;;;;;;5.65;100.00;100841.31;5055617;28;19924;-72
2022/01/17 02:22:02;;;;;;;;;;;;;;;5.37;100.00;100791.31;5073584;28;19931;-72
2022/01/17 02:24:30;;;;;;;;;;;;;;;5.44;100.00;100797.88;5075679;28;19924;-72
2022/01/17 02:26:56;;;;;;;;;;;;;;;5.55;100.00;100787.94;5076626;28;19931;-72
2022/01/17 02:29:24;;;;;;;;;;;;;;;5.71;100.00;100812.19;5075471;28;19925;-73
2022/01/17 02:31:51;;;;;;;;;;;;;;;5.76;100.00;100818.28;5076775;28;20292;-72
2022/01/17 02:34:18;;;;;;;;;;;;;;;5.88;100.00;100817.50;5109320;28;19928;-72
2022/01/17 02:36:45;;;;;;;;;;;;;;;6.05;100.00;100822.75;5076697;28;19924;-72
2022/01/17 02:39:13;;;;;;;;;;;;;;;6.21;100.00;100807.78;5076571;28;19930;-73
2022/01/17 02:41:42;;;;;;;;;;;;;;;6.23;100.00;100818.53;5058746;28;19924;-72
2022/01/17 02:44:10;;;;;;;;;;;;;;;5.74;100.00;100819.81;5076296;28;19925;-72
2022/01/17 02:46:37;;;;;;;;;;;;;;;5.90;100.00;100809.63;5091941;28;19974;-73
2022/01/17 02:49:05;;;;;;;;;;;;;;;5.84;100.00;100816.56;5076347;28;19924;-72
2022/01/17 02:51:32;;;;;;;;;;;;;;;5.60;100.00;100814.63;5092244;28;19924;-73
2022/01/17 02:53:59;;;;;;;;;;;;;;;5.80;100.00;100821.19;5074985;28;19924;-72
2022/01/17 02:56:27;;;;;;;;;;;;;;;5.94;100.00;100822.44;5075148;28;19924;-73
2022/01/17 02:58:54;;;;;;;;;;;;;;;5.91;100.00;100827.91;5058151;28;20380;-72
2022/01/17 03:01:23;;;;;;;;;;;;;;;6.08;100.00;100842.28;5074919;28;20455;-72
2022/01/17 03:03:50;;;;;;;;;;;;;;;6.10;100.00;100830.84;5076116;28;19970;-72
2022/01/17 03:06:18;;;;;;;;;;;;;;;5.86;100.00;100830.91;5076140;28;19929;-73
2022/01/17 03:08:45;;;;;;;;;;;;;;;5.66;100.00;100837.38;5074770;28;19931;-72
2022/01/17 03:11:14;;;;;;;;;;;;;;;5.67;100.00;100836.19;5074783;28;19932;-72
2022/01/17 03:13:42;;;;;;;;;;;;;;;5.49;100.00;100817.06;5074488;28;20007;-72
2022/01/17 03:16:12;;;;;;;;;;;;;;;5.28;100.00;100810.84;5074694;28;19924;-72
2022/01/17 03:18:40;;;;;;;;;;;;;;;5.50;100.00;100807.56;5074670;28;19925;-72
2022/01/17 03:21:28;;;;;;;;;;;;;;;5.68;100.00;100810.09;5047165;28;19931;-72
2022/01/17 03:23:55;;;;;;;;;;;;;;;5.77;100.00;100828.22;5074442;28;20324;-73
2022/01/17 03:26:25;;;;;;;;;;;;;;;6.13;100.00;100825.41;5075769;28;19925;-72
2022/01/17 03:28:52;;;;;;;;;;;;;;;5.96;100.00;100822.09;5075327;28;19924;-72
2022/01/17 03:31:19;;;;;;;;;;;;;;;5.96;100.00;100811.81;5075514;28;20019;-72
2022/01/17 03:33:46;;;;;;;;;;;;;;;6.14;100.00;100807.59;5073805;28;19924;-72
2022/01/17 03:36:13;;;;;;;;;;;;;;;5.90;100.00;100815.97;5075417;28;19932;-72
2022/01/17 03:38:41;;;;;;;;;;;;;;;5.88;100.00;100812.75;5075465;28;19953;-72
2022/01/17 03:41:08;;;;;;;;;;;;;;;5.77;100.00;100808.78;5074230;28;19935;-72
2022/01/17 03:43:35;;;;;;;;;;;;;;;5.78;100.00;100827.06;5057436;28;19924;-72
2022/01/17 03:46:03;;;;;;;;;;;;;;;5.80;100.00;100823.94;5073982;28;19924;-72
2022/01/17 03:48:31;;;;;;;;;;;;;;;5.69;100.00;100803.38;5074088;28;20342;-72
2022/01/17 03:50:59;;;;;;;;;;;;;;;5.88;100.00;100823.84;5073913;28;20050;-72
2022/01/17 03:53:26;;;;;;;;;;;;;;;5.86;100.00;100836.47;5074956;28;20379;-73
2022/01/17 03:55:54;;;;;;;;;;;;;;;5.77;100.00;100828.22;5073934;28;20375;-72
2022/01/17 03:58:22;;;;;;;;;;;;;;;5.86;100.00;100837.25;5074759;28;19924;-72
2022/01/17 04:00:49;;;;;;;;;;;;;;;6.19;100.00;100843.44;5074830;28;19924;-72
2022/01/17 04:03:16;;;;;;;;;;;;;;;6.48;100.00;100826.41;5074865;28;19928;-72
2022/01/17 04:05:43;;;;;;;;;;;;;;;6.24;100.00;100836.81;5075033;28;20433;-72
2022/01/17 04:08:11;;;;;;;;;;;;;;;6.35;100.00;100844.28;5057200;28;20284;-72
2022/01/17 04:10:38;;;;;;;;;;;;;;;6.37;100.00;100858.63;5074717;28;20044;-73
2022/01/17 04:13:08;;;;;;;;;;;;;;;5.98;100.00;100859.44;5074441;28;19973;-72
2022/01/17 04:15:45;;;;;;;;;;;;;;;6.27;100.00;100856.34;5074765;28;20339;-73
2022/01/17 04:18:24;;;;;;;;;;;;;;;5.74;100.00;100839.22;5073540;28;19952;-72
2022/01/17 04:20:53;;;;;;;;;;;;;;;6.07;100.00;100865.66;5074733;28;20244;-72
2022/01/17 04:23:20;;;;;;;;;;;;;;;6.08;100.00;100872.00;5056574;28;20383;-72
2022/01/17 04:25:48;;;;;;;;;;;;;;;6.11;100.00;100871.31;5074298;28;19924;-72
2022/01/17 04:28:15;;;;;;;;;;;;;;;6.31;100.00;100865.59;5074307;28;20023;-72
2022/01/17 04:30:43;;;;;;;;;;;;;;;6.27;100.00;100880.53;5073182;28;20378;-72
2022/01/17 04:33:10;;;;;;;;;;;;;;;5.98;100.00;100878.88;5074339;28;19925;-72
2022/01/17 04:35:37;;;;;;;;;;;;;;;5.95;100.00;100895.41;5073138;28;20044;-72
2022/01/17 04:38:08;;;;;;;;;;;;;;;5.49;100.00;100886.38;5074173;28;19948;-72
2022/01/17 04:40:38;;;;;;;;;;;;;;;5.84;100.00;100895.06;5074352;28;20041;-73
2022/01/17 04:43:14;;;;;;;;;;;;;;;5.69;100.00;100906.00;5074199;28;19930;-72
2022/01/17 04:45:40;;;;;;;;;;;;;;;5.57;100.00;100915.94;5073547;28;20389;-72
2022/01/17 04:48:08;;;;;;;;;;;;;;;5.79;100.00;100924.97;5106582;28;19948;-73
2022/01/17 04:50:35;;;;;;;;;;;;;;;5.97;100.00;100913.31;5072887;28;20341;-72
2022/01/17 04:53:03;;;;;;;;;;;;;;;5.58;100.00;100912.03;5056105;28;19947;-72
2022/01/17 04:55:31;;;;;;;;;;;;;;;5.73;100.00;100923.56;5072549;28;19924;-72
2022/01/17 04:57:59;;;;;;;;;;;;;;;5.89;100.00;100924.53;5089581;28;20007;-72
2022/01/17 05:00:27;;;;;;;;;;;;;;;5.98;100.00;100916.91;5073908;28;20009;-72
2022/01/17 05:02:54;;;;;;;;;;;;;;;6.10;100.00;100926.03;5073884;28;19925;-72
2022/01/17 05:05:21;;;;;;;;;;;;;;;5.77;100.00;100933.63;5072664;28;20541;-72
2022/01/17 05:07:48;;;;;;;;;;;;;;;6.22;100.00;100928.78;5072415;28;19929;-72
2022/01/17 05:10:16;;;;;;;;;;;;;;;6.30;100.00;100915.94;5058192;28;20071;-72
2022/01/17 05:12:44;;;;;;;;;;;;;;;6.44;100.00;100921.88;5053346;28;20070;-73
2022/01/17 05:15:51;;;;;;;;;;;;;;;6.53;100.00;100914.22;5052248;28;19951;-73
2022/01/17 05:20:36;;;;;;;;;;;;;;;6.11;100.00;100904.63;5053519;28;19956;-73
2022/01/17 05:23:04;;;;;;;;;;;;;;;6.17;100.00;100903.22;5019715;28;19970;-73
2022/01/17 05:25:31;;;;;;;;;;;;;;;6.08;100.00;100905.31;5053392;28;19924;-73
2022/01/17 05:27:58;;;;;;;;;;;;;;;6.41;100.00;100897.59;5053468;28;20327;-72
2022/01/17 05:30:25;;;;;;;;;;;;;;;6.35;100.00;100899.00;5053525;28;20304;-73
2022/01/17 05:32:52;;;;;;;;;;;;;;;5.90;100.00;100884.53;5052199;28;19925;-72
2022/01/17 05:35:19;;;;;;;;;;;;;;;6.09;100.00;100890.31;5052399;28;19925;-73
2022/01/17 05:37:47;;;;;;;;;;;;;;;6.64;100.00;100907.00;5053244;28;19931;-73
2022/01/17 05:40:16;;;;;;;;;;;;;;;6.50;100.00;100918.50;5053434;28;19931;-73
2022/01/17 05:42:43;;;;;;;;;;;;;;;6.11;100.00;100918.50;5052303;28;19925;-73
2022/01/17 05:45:10;;;;;;;;;;;;;;;6.39;100.00;100922.94;5053453;28;19960;-72
2022/01/17 05:47:39;;;;;;;;;;;;;;;6.31;100.00;100903.66;5052349;28;20434;-72
2022/01/17 05:50:06;;;;;;;;;;;;;;;6.48;100.00;100914.47;5035757;28;19925;-73
2022/01/17 05:52:34;;;;;;;;;;;;;;;6.60;100.00;100901.38;5052942;28;19931;-72
2022/01/17 05:55:01;;;;;;;;;;;;;;;6.45;100.00;100913.19;5053388;28;20301;-72
2022/01/17 05:57:28;;;;;;;;;;;;;;;6.64;100.00;100918.94;5054307;28;19925;-73
2022/01/17 05:59:56;;;;;;;;;;;;;;;6.70;100.00;100923.09;5056185;28;20407;-72
2022/01/17 06:02:24;;;;;;;;;;;;;;;6.79;100.00;100931.25;5057129;28;19960;-72
2022/01/17 06:04:51;;;;;;;;;;;;;;;6.58;100.00;100938.97;5057309;28;20023;-72
2022/01/17 06:07:18;;;;;;;;;;;;;;;6.73;100.00;100944.59;5055397;28;19948;-72
2022/01/17 06:09:45;;;;;;;;;;;;;;;6.76;100.00;100941.13;5057046;28;19960;-72
2022/01/17 06:12:12;;;;;;;;;;;;;;;6.49;100.00;100941.09;5055588;28;20280;-72
2022/01/17 06:14:39;;;;;;;;;;;;;;;6.11;100.00;100947.06;5057135;28;20301;-73
2022/01/17 06:17:07;;;;;;;;;;;;;;;6.20;100.00;100958.03;5055873;28;20344;-72
2022/01/17 06:19:34;;;;;;;;;;;;;;;6.10;100.00;100972.41;5056901;28;20360;-73
2022/01/17 06:22:02;;;;;;;;;;;;;;;6.44;100.00;100974.66;5039129;28;20026;-72
2022/01/17 06:24:29;;;;;;;;;;;;;;;6.35;100.00;100987.84;5055566;28;19925;-72
2022/01/17 06:26:58;;;;;;;;;;;;;;;6.44;100.00;100982.97;5039141;28;19925;-72
2022/01/17 06:29:26;;;;;;;;;;;;;;;5.82;100.00;100977.00;5055709;28;20388;-72
2022/01/17 06:31:53;;;;;;;;;;;;;;;5.79;100.00;100983.22;5055505;28;19925;-73
2022/01/17 06:34:21;;;;;;;;;;;;;;;5.66;100.00;100979.63;5056710;28;19932;-73
2022/01/17 06:36:48;;;;;;;;;;;;;;;5.87;100.00;100985.09;5055246;28;20027;-73
2022/01/17 06:39:15;;;;;;;;;;;;;;;5.94;100.00;100988.13;5088647;28;20040;-72
2022/01/17 06:41:42;;;;;;;;;;;;;;;6.16;100.00;100994.03;5056594;28;20402;-73
2022/01/17 06:44:09;;;;;;;;;;;;;;;5.67;100.00;100981.25;5055390;28;20356;-72
2022/01/17 06:46:37;;;;;;;;;;;;;;;6.14;100.00;101003.84;5056671;28;19925;-72
2022/01/17 06:49:05;;;;;;;;;;;;;;;5.88;100.00;101012.50;5056534;28;20014;-72
2022/01/17 06:51:32;;;;;;;;;;;;;;;5.68;100.00;101034.78;5054822;28;19931;-72
2022/01/17 06:53:59;;;;;;;;;;;;;;;5.95;100.00;101050.78;5056294;28;19931;-73
2022/01/17 06:56:26;;;;;;;;;;;;;;;5.58;100.00;101050.69;5055473;28;19951;-72
2022/01/17 06:58:53;;;;;;;;;;;;;;;5.98;100.00;101052.88;5056425;28;19929;-72
2022/01/17 07:01:20;;;;;;;;;;;;;;;5.90;100.00;101042.69;5056355;28;20006;-72
2022/01/17 07:03:49;;;;;;;;;;;;;;;5.87;100.00;101010.06;5038255;28;19925;-72
2022/01/17 07:06:18;;;;;;;;;;;;;;;5.85;100.00;101004.06;5055867;28;19931;-72
2022/01/17 07:08:45;;;;;;;;;;;;;;;5.91;100.00;101011.03;5055356;28;19925;-73
2022/01/17 07:11:13;;;;;;;;;;;;;;;6.09;100.00;101023.53;5056033;28;20429;-72
2022/01/17 07:13:39;;;;;;;;;;;;;;;5.74;100.00;101027.84;5055979;28;19929;-73
2022/01/17 07:16:06;;;;;;;;;;;;;;;6.01;100.00;101027.22;5054938;28;20391;-72
2022/01/17 07:18:34;;;;;;;;;;;;;;;5.83;100.00;101020.25;5054887;28;20356;-72
2022/01/17 07:21:01;;;;;;;;;;;;;;;5.54;100.00;101024.78;5054596;28;19932;-72
2022/01/17 07:23:28;;;;;;;;;;;;;;;5.77;100.00;101030.72;5055896;28;19925;-72
2022/01/17 07:25:56;;;;;;;;;;;;;;;5.86;100.00;101047.31;5054728;28;19925;-72
2022/01/17 07:28:25;;;;;;;;;;;;;;;5.89;100.00;101029.97;5054681;28;19925;-72
2022/01/17 07:30:52;;;;;;;;;;;;;;;5.77;100.00;101022.41;5055804;28;19974;-73
2022/01/17 07:33:23;;;;;;;;;;;;;;;5.65;100.00;101024.34;5055619;28;20019;-73
2022/01/17 07:35:50;;;;;;;;;;;;;;;5.65;100.00;101041.00;5037563;28;19959;-72
2022/01/17 07:38:17;;;;;;;;;;;;;;;5.90;100.00;101053.78;5054492;28;20067;-73
2022/01/17 07:40:44;;;;;;;;;;;;;;;5.90;100.00;101051.00;5055748;28;19925;-72
2022/01/17 07:43:12;;;;;;;;;;;;;;;5.74;100.00;101044.50;5055476;28;19932;-72
2022/01/17 07:45:46;;;;;;;;;;;;;;;5.80;100.00;101041.13;5055398;28;19970;-72
2022/01/17 07:49:16;;;;;;;;;;;;;;;5.74;100.00;101038.94;5054078;28;19932;-72
2022/01/17 07:51:10;;;;;;;;;;;;;;;5.38;100.00;101043.22;5046326;28;19929;-72
2022/01/17 07:53:38;;;;;;;;;;;;;;;5.78;100.00;101056.50;5038496;28;19962;-73
2022/01/17 07:56:05;;;;;;;;;;;;;;;5.93;100.00;101048.38;5063395;28;19960;-72
2022/01/17 07:58:32;;;;;;;;;;;;;;;5.83;100.00;101048.00;5065275;28;19958;-73
2022/01/17 08:00:59;;;;;;;;;;;;;;;6.02;100.00;101059.34;5056484;28;19928;-73
2022/01/17 08:03:27;;;;;;;;;;;;;;;6.03;100.00;101044.34;5053769;28;19948;-73
2022/01/17 08:05:54;;;;;;;;;;;;;;;6.37;100.00;101046.63;5053729;28;19948;-73
2022/01/17 08:08:21;;;;;;;;;;;;;;;5.87;100.00;101051.69;5037405;28;20359;-73
2022/01/17 08:10:49;;;;;;;;;;;;;;;5.73;100.00;101053.94;5053547;28;20024;-73
2022/01/17 08:13:16;;;;;;;;;;;;;;;5.72;100.00;101057.88;5053469;28;19925;-73
2022/01/17 08:15:44;;;;;;;;;;;;;;;6.02;100.00;101057.38;5053908;28;19925;-73
2022/01/17 08:18:12;;;;;;;;;;;;;;;6.21;100.00;101054.06;5052917;28;20007;-73
2022/01/17 08:20:40;;;;;;;;;;;;;;;6.15;100.00;101055.44;5079135;28;19924;-73
2022/01/17 08:23:08;;;;;;;;;;;;;;;6.34;100.00;101058.44;5046476;28;20011;-73
2022/01/17 08:25:35;;;;;;;;;;;;;;;6.52;100.00;101059.81;5064892;28;20035;-73
2022/01/17 08:28:02;;;;;;;;;;;;;;;6.28;100.00;101049.53;5062318;28;20019;-73
2022/01/17 08:30:31;;;;;;;;;;;;;;;6.08;100.00;101044.09;5068844;28;20019;-73
2022/01/17 08:33:18;;;;;;;;;;;;;;;5.73;100.00;101053.94;5056321;28;20313;-72
2022/01/17 08:35:45;;;;;;;;;;;;;;;5.68;100.00;101056.97;5073146;28;19925;-73
2022/01/17 08:38:13;;;;;;;;;;;;;;;5.69;100.00;101067.72;5072792;28;19925;-72
2022/01/17 08:40:40;;;;;;;;;;;;;;;5.41;100.00;101066.69;5073357;28;19983;-72
2022/01/17 08:43:07;;;;;;;;;;;;;;;5.31;100.00;101076.25;5053378;28;19925;-72
2022/01/17 08:45:34;;;;;;;;;;;;;;;5.59;100.00;101082.00;5061526;28;19931;-73
2022/01/17 08:48:09;;;;;;;;;;;;;;;5.52;100.00;101062.34;5045086;28;19956;-73
2022/01/17 08:50:36;;;;;;;;;;;;;;;5.10;100.00;101061.59;5044182;28;19983;-73
2022/01/17 08:53:05;;;;;;;;;;;;;;;5.00;100.00;101058.41;5078027;28;19929;-72
2022/01/17 08:55:32;;;;;;;;;;;;;;;4.79;100.00;101065.91;5056864;28;20047;-73
2022/01/17 08:58:01;;;;;;;;;;;;;;;4.61;100.00;101072.72;5052723;28;19936;-72
2022/01/17 09:00:31;;;;;;;;;;;;;;;4.98;100.00;101080.91;5052598;28;20021;-73
2022/01/17 09:03:15;;;;;;;;;;;;;;;4.84;100.00;101094.25;5035992;28;19929;-72
2022/01/17 09:05:42;;;;;;;;;;;;;;;4.72;100.00;101102.47;5053891;28;19925;-73
2022/01/17 09:08:09;;;;;;;;;;;;;;;5.02;100.00;101084.66;5052627;28;19951;-72
2022/01/17 09:10:36;;;;;;;;;;;;;;;4.78;100.00;101090.06;5064447;28;19930;-72
2022/01/17 09:13:04;;;;;;;;;;;;;;;4.08;100.00;101084.41;5073585;28;19928;-72
2022/01/17 09:15:31;;;;;;;;;;;;;;;4.08;100.00;101089.13;5073531;28;20620;-73
2022/01/17 09:17:58;;;;;;;;;;;;;;;4.50;100.00;101093.66;5072468;28;19925;-72
2022/01/17 09:20:25;;;;;;;;;;;;;;;4.63;100.00;101103.66;5073603;28;19931;-73
2022/01/17 09:22:52;;;;;;;;;;;;;;;4.61;100.00;101100.41;5072232;28;20318;-72
2022/01/17 09:25:19;;;;;;;;;;;;;;;4.82;100.00;101098.47;5072503;28;19931;-73
2022/01/17 09:27:47;;;;;;;;;;;;;;;4.93;100.00;101092.22;5073520;28;20364;-72
2022/01/17 09:30:15;;;;;;;;;;;;;;;4.95;100.00;101089.13;5072205;28;19935;-73
2022/01/17 09:32:43;;;;;;;;;;;;;;;4.89;100.00;101094.03;5057104;28;20286;-73
2022/01/17 09:35:13;;;;;;;;;;;;;;;4.88;100.00;101092.41;5110302;28;19928;-73
2022/01/17 09:37:41;;;;;;;;;;;;;;;4.66;100.00;101103.81;5076528;28;20023;-74
2022/01/17 09:40:09;;;;;;;;;;;;;;;4.82;100.00;101107.63;5076293;28;19925;-72
2022/01/17 09:42:37;;;;;;;;;;;;;;;4.50;100.00;101110.28;5076316;28;20027;-72
2022/01/17 09:45:06;;;;;;;;;;;;;;;4.68;100.00;101117.34;5074423;28;20019;-72
2022/01/17 09:47:36;;;;;;;;;;;;;;;4.62;100.00;101138.84;5067614;28;20352;-72
2022/01/17 09:50:08;;;;;;;;;;;;;;;4.53;100.00;101146.38;5066228;28;19925;-72
2022/01/17 09:52:39;;;;;;;;;;;;;;;4.35;100.00;101155.91;5048930;28;19931;-73
2022/01/17 09:55:13;;;;;;;;;;;;;;;4.43;100.00;101146.78;5065589;28;19971;-73
2022/01/17 09:57:52;;;;;;;;;;;;;;;3.96;100.00;101134.09;5065779;28;19929;-72
2022/01/17 10:00:24;;;;;;;;;;;;;;;4.33;100.00;101138.81;5062774;28;20385;-72
2022/01/17 10:02:51;;;;;;;;;;;;;;;4.84;100.00;101137.75;5066507;28;19935;-73
2022/01/17 10:05:19;;;;;;;;;;;;;;;5.07;100.00;101136.28;5066910;28;20267;-72
2022/01/17 10:07:54;;;;;;;;;;;;;;;5.40;100.00;101151.03;5047778;28;20310;-72
2022/01/17 10:10:42;;;;;;;;;;;;;;;5.79;100.00;101156.03;5061931;28;19928;-71
2022/01/17 10:13:20;;;;;;;;;;;;;;;6.13;100.00;101154.91;5063120;28;19933;-71
2022/01/17 10:16:07;;;;;;;;;;;;;;;6.41;100.00;101162.22;5065533;28;19933;-72
2022/01/17 10:18:34;;;;;;;;;;;;;;;6.56;100.00;101183.75;5050039;28;19924;-72
2022/01/17 10:21:12;;;;;;;;;;;;;;;6.66;100.00;101176.94;5059683;28;19933;-71
2022/01/17 10:29:14;;;;;;;;;;;;;;;6.90;100.00;101193.63;5087694;28;19924;-72
2022/01/17 10:37:13;;;;;;;;;;;;;;;7.27;100.00;101214.66;5043610;28;19932;-72
2022/01/17 10:39:51;;;;;;;;;;;;;;;7.58;100.00;101206.47;5048901;28;19929;-72
2022/01/17 10:42:26;;;;;;;;;;;;;;;7.70;100.00;101211.19;5056180;28;19929;-73
2022/01/17 10:44:54;;;;;;;;;;;;;;;7.74;100.00;101207.34;5093305;28;20327;-72
2022/01/17 10:47:26;;;;;;;;;;;;;;;7.86;100.00;101204.50;5057990;28;19924;-74
2022/01/17 10:49:55;;;;;;;;;;;;;;;8.04;100.00;101211.38;5061470;28;19950;-74
2022/01/17 10:52:28;;;;;;;;;;;;;;;8.07;100.00;101224.63;5063943;28;19982;-73
2022/01/17 10:54:56;;;;;;;;;;;;;;;8.18;100.00;101217.34;5061998;28;19931;-75
2022/01/17 10:57:24;;;;;;;;;;;;;;;8.36;100.00;101224.25;5062658;28;19989;-75
2022/01/17 10:59:52;;;;;;;;;;;;;;;8.41;100.00;101232.34;5062843;28;19979;-72
2022/01/17 11:02:24;;;;;;;;;;;;;;;8.12;100.00;101235.50;5062454;28;20334;-72
2022/01/17 11:04:51;;;;;;;;;;;;;;;8.06;100.00;101217.41;5045015;28;20017;-71
2022/01/17 11:07:18;;;;;;;;;;;;;;;8.15;100.00;101218.06;5063055;28;20047;-72
2022/01/17 11:09:49;;;;;;;;;;;;;;;8.10;100.00;101231.44;5063337;28;19951;-72
2022/01/17 11:12:18;;;;;;;;;;;;;;;8.15;100.00;101223.63;5061467;28;19932;-76
2022/01/17 11:14:46;;;;;;;;;;;;;;;8.22;100.00;101223.88;5066370;28;19967;-72
2022/01/17 11:17:26;;;;;;;;;;;;;;;8.02;100.00;101230.44;5041762;28;20046;-72
2022/01/17 11:20:04;;;;;;;;;;;;;;;7.89;100.00;101230.84;5057672;28;20033;-73
2022/01/17 11:22:32;;;;;;;;;;;;;;;7.74;100.00;101229.59;5060552;28;19932;-72
2022/01/17 11:25:00;;;;;;;;;;;;;;;7.87;100.00;101239.56;5063635;28;19924;-72
2022/01/17 11:27:27;;;;;;;;;;;;;;;7.94;100.00;101239.75;5041952;28;20300;-72
2022/01/17 11:29:55;;;;;;;;;;;;;;;8.14;100.00;101238.75;5025190;28;19924;-71
2022/01/17 11:32:23;;;;;;;;;;;;;;;8.34;100.00;101248.91;5051248;28;19940;-71
2022/01/17 11:34:54;;;;;;;;;;;;;;;8.08;100.00;101244.91;5051489;28;19925;-71
2022/01/17 11:37:22;;;;;;;;;;;;;;;8.07;100.00;101238.56;5057086;28;19931;-71
2022/01/17 11:39:50;;;;;;;;;;;;;;;8.22;100.00;101234.19;5059896;28;19928;-72
2022/01/17 11:42:28;;;;;;;;;;;;;;;8.38;100.00;101233.06;5063839;28;19924;-72
2022/01/17 11:44:57;;;;;;;;;;;;;;;8.33;100.00;101233.31;5066961;28;19928;-73
2022/01/17 11:48:02;;;;;;;;;;;;;;;8.40;100.00;101230.75;5057359;28;19931;-73
2022/01/17 11:50:30;;;;;;;;;;;;;;;8.54;100.00;101219.97;5040862;28;19960;-72
2022/01/17 11:52:58;;;;;;;;;;;;;;;8.66;100.00;101225.44;5055721;28;19987;-73
2022/01/17 11:55:42;;;;;;;;;;;;;;;8.49;100.00;101211.88;5038912;28;19962;-73
2022/01/17 11:58:17;;;;;;;;;;;;;;;8.66;100.00;101210.72;5050915;28;19932;-73
2022/01/17 12:00:44;;;;;;;;;;;;;;;8.60;100.00;101210.16;5056320;28;19925;-73
2022/01/17 12:03:16;;;;;;;;;;;;;;;8.73;100.00;101196.94;5048232;28;20288;-73
2022/01/17 12:05:43;;;;;;;;;;;;;;;8.82;100.00;101206.75;5049014;28;19932;-73
2022/01/17 12:08:13;;;;;;;;;;;;;;;8.66;100.00;101194.78;5031612;28;19932;-73
2022/01/17 12:10:44;;;;;;;;;;;;;;;8.58;100.00;101197.78;5048054;28;20438;-73
2022/01/17 12:13:15;;;;;;;;;;;;;;;8.51;100.00;101201.16;5032225;28;20411;-73
2022/01/17 12:16:06;;;;;;;;;;;;;;;8.52;100.00;101204.78;5015469;28;20611;-72
2022/01/17 12:18:34;;;;;;;;;;;;;;;8.61;100.00;101211.81;5033077;28;19948;-73
2022/01/17 12:21:18;;;;;;;;;;;;;;;8.69;100.00;101216.38;5033195;28;19928;-72
2022/01/17 12:23:45;;;;;;;;;;;;;;;8.79;100.00;101215.03;5062156;28;20248;-72
2022/01/17 12:26:29;;;;;;;;;;;;;;;9.02;100.00;101229.94;5047337;28;19929;-73
2022/01/17 12:28:57;;;;;;;;;;;;;;;8.99;100.00;101230.66;5033334;28;19926;-73
2022/01/17 12:31:40;;;;;;;;;;;;;;;8.12;100.00;101229.91;5061091;28;20356;-73
2022/01/17 12:34:19;;;;;;;;;;;;;;;8.52;100.00;101221.50;5056659;28;19925;-72
2022/01/17 12:36:48;;;;;;;;;;;;;;;8.43;100.00;101204.13;5074429;28;19924;-72
2022/01/17 12:39:17;;;;;;;;;;;;;;;8.45;100.00;101199.81;5072848;28;19928;-72
2022/01/17 12:41:45;;;;;;;;;;;;;;;8.65;100.00;101193.19;5072929;28;19932;-72
2022/01/17 12:44:19;;;;;;;;;;;;;;;8.75;100.00;101195.41;5060659;28;20384;-72
2022/01/17 12:46:49;;;;;;;;;;;;;;;8.55;100.00;101188.16;5063955;28;20012;-72
2022/01/17 12:49:16;;;;;;;;;;;;;;;8.13;100.00;101191.75;5063618;28;20066;-72
2022/01/17 12:51:45;;;;;;;;;;;;;;;8.15;100.00;101206.94;5065988;28;19925;-72
2022/01/17 12:54:13;;;;;;;;;;;;;;;8.49;100.00;101216.63;5016046;28;19982;-72
2022/01/17 12:56:41;;;;;;;;;;;;;;;8.56;100.00;101228.78;5034142;28;19971;-72
2022/01/17 12:59:09;;;;;;;;;;;;;;;8.94;100.00;101222.56;5034138;28;20365;-72
2022/01/17 13:01:42;;;;;;;;;;;;;;;9.13;100.00;101206.72;5038865;28;20357;-72
2022/01/17 13:04:11;;;;;;;;;;;;;;;9.41;100.00;101203.78;5074097;28;19928;-72
2022/01/17 13:06:40;;;;;;;;;;;;;;;9.45;100.00;101221.38;5105877;28;19925;-72
2022/01/17 13:09:15;;;;;;;;;;;;;;;9.31;100.00;101225.84;5072259;28;20295;-72